Time;durP1;ratioP1;P1;durP2;ratioP2;P2;SDS_P1;SDS_P2;PMS_P1;PMS_P2;Temp;Humidity;BMP_temperature;BMP_pressure;BME280_temperature;BME280_humidity;BME280_pressure;Samples;Min_cycle;Max_cycle;Signal;HPM_P1;HPM_P2
2022/05/21 00:01:30;;;;;;;1.63;0.50;;;12.40;99.90;;;;;;5044953;28;20508;-59
2022/05/21 00:03:57;;;;;;;2.33;0.50;;;12.30;99.90;;;;;;5043452;28;20495;-60
2022/05/21 00:06:24;;;;;;;0.98;0.50;;;12.30;99.90;;;;;;5044058;28;20052;-59
2022/05/21 00:08:51;;;;;;;0.85;0.47;;;12.30;99.90;;;;;;5028033;28;20084;-59
2022/05/21 00:11:18;;;;;;;1.33;0.50;;;12.30;99.90;;;;;;5047953;28;20437;-59
2022/05/21 00:13:47;;;;;;;1.73;0.70;;;12.20;99.90;;;;;;5047802;28;20135;-59
2022/05/21 00:16:13;;;;;;;1.10;0.65;;;12.20;99.90;;;;;;5028208;28;20272;-60
2022/05/21 00:18:40;;;;;;;3.22;0.80;;;12.20;99.90;;;;;;5027099;28;20642;-59
2022/05/21 00:21:07;;;;;;;1.30;0.55;;;12.20;99.90;;;;;;5012603;28;20052;-59
2022/05/21 00:23:34;;;;;;;1.75;0.73;;;12.20;99.90;;;;;;5030182;28;20135;-59
2022/05/21 00:26:03;;;;;;;1.85;0.80;;;12.10;99.90;;;;;;5047845;28;20454;-59
2022/05/21 00:28:30;;;;;;;2.33;1.13;;;12.10;99.90;;;;;;5047590;28;20106;-59
2022/05/21 00:30:57;;;;;;;1.20;0.68;;;12.10;99.90;;;;;;5047234;28;20057;-57
2022/05/21 00:33:24;;;;;;;1.52;0.50;;;12.10;99.90;;;;;;5029797;28;20110;-59
2022/05/21 00:35:51;;;;;;;2.30;0.80;;;12.00;99.90;;;;;;5044993;28;20084;-60
2022/05/21 00:38:18;;;;;;;2.67;1.45;;;12.00;99.90;;;;;;5046702;28;20135;-59
2022/05/21 00:40:45;;;;;;;1.88;0.70;;;12.00;99.90;;;;;;5047168;28;20489;-60
2022/05/21 00:43:40;;;;;;;1.58;0.60;;;12.00;99.90;;;;;;5046862;28;20521;-59
2022/05/21 00:46:17;;;;;;;2.58;0.80;;;11.90;99.90;;;;;;5047347;28;20088;-60
2022/05/21 00:48:45;;;;;;;0.90;0.75;;;12.00;99.90;;;;;;5046582;28;20049;-59
2022/05/21 00:51:16;;;;;;;1.70;0.80;;;11.90;99.90;;;;;;5046538;28;20091;-59
2022/05/21 00:53:44;;;;;;;2.35;1.13;;;11.90;99.90;;;;;;5028976;28;20145;-59
2022/05/21 00:56:10;;;;;;;1.30;0.70;;;11.90;99.90;;;;;;5047462;28;20076;-59
2022/05/21 01:01:22;;;;;;;3.08;1.10;;;11.90;99.90;;;;;;5031550;28;20179;-60
2022/05/21 01:03:49;;;;;;;2.42;0.80;;;12.00;99.90;;;;;;5025143;28;20488;-59
2022/05/21 01:06:16;;;;;;;3.15;1.10;;;11.90;99.90;;;;;;5025505;28;20208;-59
2022/05/21 01:08:42;;;;;;;1.77;0.90;;;12.00;99.90;;;;;;5046723;28;20322;-59
2022/05/21 01:11:14;;;;;;;1.63;0.68;;;12.00;99.90;;;;;;5047163;28;20079;-59
2022/05/21 01:13:41;;;;;;;3.38;1.00;;;12.00;99.90;;;;;;5028846;28;20136;-59
2022/05/21 01:16:08;;;;;;;2.53;0.80;;;11.90;99.90;;;;;;5029131;28;20469;-60
2022/05/21 01:18:35;;;;;;;2.13;1.00;;;11.90;99.90;;;;;;5047197;28;20076;-59
2022/05/21 01:21:02;;;;;;;2.22;0.90;;;11.90;99.90;;;;;;5045724;28;20088;-59
2022/05/21 01:23:29;;;;;;;1.90;0.82;;;11.90;99.90;;;;;;5046916;28;20618;-59
2022/05/21 01:25:57;;;;;;;1.95;0.95;;;11.90;99.90;;;;;;5046276;28;20091;-59
2022/05/21 01:28:26;;;;;;;2.72;1.20;;;11.90;99.90;;;;;;5028967;28;20057;-59
2022/05/21 01:30:54;;;;;;;1.58;0.70;;;11.90;99.90;;;;;;5047281;28;20129;-58
2022/05/21 01:33:26;;;;;;;4.53;1.65;;;11.90;99.90;;;;;;5034813;28;20060;-60
2022/05/21 01:35:53;;;;;;;2.92;1.00;;;11.90;99.90;;;;;;5043602;28;20060;-59
2022/05/21 01:38:21;;;;;;;2.75;0.90;;;11.90;99.90;;;;;;5045346;28;20156;-60
2022/05/21 01:40:48;;;;;;;3.47;1.25;;;11.90;99.90;;;;;;5045492;28;20084;-59
2022/05/21 01:46:00;;;;;;;3.15;0.85;;;11.80;99.90;;;;;;5045617;28;20088;-59
2022/05/21 01:48:29;;;;;;;1.75;0.68;;;11.80;99.90;;;;;;5047822;28;20692;-59
2022/05/21 01:51:02;;;;;;;4.65;0.98;;;11.80;99.90;;;;;;5045969;28;20068;-59
2022/05/21 01:53:29;;;;;;;1.67;0.90;;;11.80;99.90;;;;;;5047302;28;20140;-60
2022/05/21 01:55:57;;;;;;;2.47;0.88;;;11.70;99.90;;;;;;5029281;28;20049;-60
2022/05/21 01:58:24;;;;;;;3.28;0.95;;;11.70;99.90;;;;;;5046375;28;20084;-59
2022/05/21 02:00:50;;;;;;;2.58;0.90;;;11.70;99.90;;;;;;5046129;28;20080;-59
2022/05/21 02:03:17;;;;;;;1.80;0.60;;;11.60;99.90;;;;;;5028624;28;20513;-59
2022/05/21 02:05:47;;;;;;;1.15;0.70;;;11.60;99.90;;;;;;5044841;28;20049;-59
2022/05/21 02:08:14;;;;;;;2.10;0.73;;;11.60;99.90;;;;;;5046363;28;20127;-59
2022/05/21 02:10:41;;;;;;;1.05;0.52;;;11.60;99.90;;;;;;5045822;28;20084;-59
2022/05/21 02:13:15;;;;;;;1.17;0.50;;;11.50;99.90;;;;;;5046659;28;20123;-59
2022/05/21 02:15:42;;;;;;;1.77;0.60;;;11.50;99.90;;;;;;5046669;28;20084;-59
2022/05/21 02:18:10;;;;;;;1.13;0.50;;;11.50;99.90;;;;;;5046239;28;20080;-59
2022/05/21 02:20:36;;;;;;;1.65;0.60;;;11.40;99.90;;;;;;5044806;28;20139;-59
2022/05/21 02:23:03;;;;;;;1.15;0.50;;;11.40;99.90;;;;;;5046309;28;20132;-59
2022/05/21 02:25:30;;;;;;;1.48;0.50;;;11.30;99.90;;;;;;5045803;28;20084;-60
2022/05/21 02:27:57;;;;;;;1.15;0.77;;;11.30;99.90;;;;;;5046332;28;20570;-59
2022/05/21 02:30:23;;;;;;;1.65;0.68;;;11.20;99.90;;;;;;5043257;28;20049;-60
2022/05/21 02:32:50;;;;;;;2.50;0.57;;;11.20;99.90;;;;;;5034827;28;20059;-60
2022/05/21 02:35:17;;;;;;;0.82;0.40;;;11.20;99.90;;;;;;5022186;28;20069;-59
2022/05/21 02:40:30;;;;;;;1.30;0.50;;;11.10;99.90;;;;;;5030840;28;20055;-60
2022/05/21 02:42:56;;;;;;;1.23;0.50;;;11.10;99.90;;;;;;5030877;28;20121;-59
2022/05/21 02:45:25;;;;;;;1.00;0.40;;;11.10;99.90;;;;;;5024033;28;20124;-59
2022/05/21 02:47:53;;;;;;;0.98;0.50;;;11.10;99.90;;;;;;5020546;28;20148;-60
2022/05/21 02:50:21;;;;;;;0.75;0.32;;;11.10;99.90;;;;;;5008229;28;20492;-59
2022/05/21 02:52:48;;;;;;;0.77;0.30;;;11.00;99.90;;;;;;5043876;28;20596;-59
2022/05/21 02:55:15;;;;;;;0.70;0.30;;;11.00;99.90;;;;;;5043451;28;20110;-59
2022/05/21 02:57:42;;;;;;;0.75;0.40;;;11.10;99.90;;;;;;5044100;28;20725;-60
2022/05/21 03:00:22;;;;;;;0.47;0.30;;;11.00;99.90;;;;;;5029413;28;20132;-59
2022/05/21 03:02:49;;;;;;;0.45;0.40;;;11.10;99.90;;;;;;5022328;28;20691;-60
2022/05/21 03:05:15;;;;;;;0.55;0.20;;;11.00;99.90;;;;;;5042341;28;20056;-59
2022/05/21 03:07:44;;;;;;;1.13;0.40;;;11.00;99.90;;;;;;5043620;28;20045;-59
2022/05/21 03:10:21;;;;;;;1.08;0.40;;;11.00;99.90;;;;;;5044060;28;20124;-58
2022/05/21 03:12:49;;;;;;;1.05;0.40;;;11.00;99.90;;;;;;5043776;28;20115;-59
2022/05/21 03:15:16;;;;;;;1.20;0.47;;;11.00;99.90;;;;;;5025088;28;20148;-61
2022/05/21 03:17:44;;;;;;;0.85;0.30;;;11.00;99.90;;;;;;5043976;28;20551;-59
2022/05/21 03:20:13;;;;;;;1.95;0.73;;;11.00;99.90;;;;;;5042109;28;20129;-59
2022/05/21 03:22:40;;;;;;;2.17;0.60;;;11.00;99.90;;;;;;5043613;28;20041;-59
2022/05/21 03:25:08;;;;;;;1.00;0.43;;;11.00;99.90;;;;;;5043300;28;20041;-59
2022/05/21 03:27:35;;;;;;;1.05;0.40;;;11.00;99.90;;;;;;5025172;28;20099;-60
2022/05/21 03:30:03;;;;;;;1.25;0.60;;;11.00;99.90;;;;;;5024502;28;20645;-60
2022/05/21 03:32:30;;;;;;;0.68;0.38;;;11.00;99.90;;;;;;5027378;28;20105;-60
2022/05/21 03:34:57;;;;;;;1.63;0.52;;;11.10;99.90;;;;;;5042273;28;20136;-60
2022/05/21 03:37:24;;;;;;;2.53;0.65;;;11.10;99.90;;;;;;5025096;28;20538;-60
2022/05/21 03:39:51;;;;;;;1.15;0.45;;;11.10;99.90;;;;;;5024695;28;20055;-59
2022/05/21 03:42:17;;;;;;;1.15;0.40;;;11.10;99.90;;;;;;5027182;28;20121;-59
2022/05/21 03:44:46;;;;;;;1.35;0.70;;;11.10;99.90;;;;;;5043062;28;20141;-59
2022/05/21 03:47:13;;;;;;;2.10;0.47;;;11.10;99.90;;;;;;5025852;28;20132;-60
2022/05/21 03:49:40;;;;;;;2.35;0.40;;;11.10;99.90;;;;;;5042239;28;20140;-61
2022/05/21 03:52:07;;;;;;;0.95;0.50;;;11.10;99.90;;;;;;5043176;28;20043;-59
2022/05/21 03:54:34;;;;;;;0.93;0.50;;;11.10;99.90;;;;;;5043021;28;20128;-59
2022/05/21 03:57:01;;;;;;;1.77;0.70;;;11.00;99.90;;;;;;5044787;28;20145;-59
2022/05/21 03:59:27;;;;;;;0.60;0.40;;;11.00;99.90;;;;;;5045858;28;20072;-59
2022/05/21 04:01:54;;;;;;;0.55;0.40;;;11.00;99.90;;;;;;5047038;28;20136;-59
2022/05/21 04:04:21;;;;;;;1.35;0.38;;;11.00;99.90;;;;;;5028075;28;20068;-59
2022/05/21 04:06:48;;;;;;;1.13;0.38;;;11.00;99.90;;;;;;5046268;28;20131;-59
2022/05/21 04:09:14;;;;;;;0.65;0.45;;;11.00;99.90;;;;;;5046940;28;20131;-59
2022/05/21 04:11:41;;;;;;;0.80;0.50;;;11.00;99.90;;;;;;5046602;28;20099;-59
2022/05/21 04:14:08;;;;;;;0.77;0.50;;;11.00;99.90;;;;;;5028510;28;20068;-59
2022/05/21 04:16:42;;;;;;;2.67;0.63;;;11.00;99.90;;;;;;5046762;28;20052;-60
2022/05/21 04:19:09;;;;;;;1.65;0.82;;;11.10;99.90;;;;;;5045692;28;20076;-60
2022/05/21 04:21:36;;;;;;;2.15;0.70;;;11.10;99.90;;;;;;5045833;28;20080;-59
2022/05/21 04:24:03;;;;;;;1.60;0.55;;;11.10;99.90;;;;;;5046357;28;20128;-58
2022/05/21 04:26:30;;;;;;;0.93;0.40;;;11.10;99.90;;;;;;5027434;28;20669;-59
2022/05/21 04:28:58;;;;;;;1.65;0.70;;;11.20;99.90;;;;;;5026351;28;20147;-59
2022/05/21 04:31:25;;;;;;;1.00;0.50;;;11.20;99.90;;;;;;5027767;28;20073;-59
2022/05/21 04:33:58;;;;;;;;;;;11.20;99.90;;;;;;5039649;28;20056;-59
2022/05/21 04:36:25;;;;;;;1.92;0.57;;;11.20;99.90;;;;;;5045154;28;19943;-59
2022/05/21 04:38:53;;;;;;;1.38;0.50;;;11.20;99.90;;;;;;5045927;28;20149;-60
2022/05/21 04:41:20;;;;;;;1.00;0.30;;;11.30;99.90;;;;;;5034900;28;20148;-59
2022/05/21 04:43:47;;;;;;;0.90;0.43;;;11.30;99.90;;;;;;5020300;28;20472;-60
2022/05/21 04:46:15;;;;;;;1.83;0.88;;;11.30;99.90;;;;;;5045592;28;20040;-59
2022/05/21 04:48:43;;;;;;;2.47;0.60;;;11.30;99.90;;;;;;5024865;28;20101;-59
2022/05/21 04:51:29;;;;;;;1.30;0.93;;;11.40;99.90;;;;;;5040793;28;20397;-59
2022/05/21 04:53:56;;;;;;;1.23;0.43;;;11.40;99.90;;;;;;5026536;28;20303;-59
2022/05/21 04:56:23;;;;;;;1.15;0.68;;;11.40;99.90;;;;;;5031640;28;20129;-59
2022/05/21 04:59:04;;;;;;;1.85;0.68;;;11.40;99.90;;;;;;5032633;28;20140;-60
2022/05/21 05:01:31;;;;;;;1.23;0.38;;;11.50;99.90;;;;;;5024797;28;20041;-59
2022/05/21 05:03:58;;;;;;;1.70;0.60;;;11.50;99.90;;;;;;5030708;28;20815;-59
2022/05/21 05:06:24;;;;;;;1.98;0.82;;;11.60;99.90;;;;;;5041369;28;20288;-59
2022/05/21 05:08:51;;;;;;;1.25;0.60;;;11.60;99.90;;;;;;5041695;28;20073;-59
2022/05/21 05:11:18;;;;;;;1.65;0.68;;;11.60;99.90;;;;;;5024027;28;20535;-59
2022/05/21 05:13:44;;;;;;;1.02;0.50;;;11.70;99.90;;;;;;5041327;28;20124;-59
2022/05/21 05:16:11;;;;;;;1.50;0.80;;;11.80;99.90;;;;;;5031784;28;20067;-60
2022/05/21 05:18:38;;;;;;;1.95;0.75;;;11.80;99.90;;;;;;5026245;28;20199;-59
2022/05/21 05:21:05;;;;;;;1.27;0.65;;;11.80;99.90;;;;;;5040679;28;20116;-60
2022/05/21 05:23:31;;;;;;;2.88;0.93;;;11.90;99.90;;;;;;5039978;28;20136;-59
2022/05/21 05:25:59;;;;;;;1.50;0.70;;;11.90;99.90;;;;;;5034118;28;20664;-60
2022/05/21 05:28:27;;;;;;;2.70;0.80;;;12.00;99.90;;;;;;5038444;28;20059;-60
2022/05/21 05:30:53;;;;;;;2.00;0.80;;;12.00;99.90;;;;;;5039172;28;20635;-59
2022/05/21 05:33:21;;;;;;;1.95;0.60;;;12.00;99.90;;;;;;5029906;28;20132;-59
2022/05/21 05:35:56;;;;;;;2.15;0.77;;;12.00;99.90;;;;;;5028210;28;20131;-59
2022/05/21 05:38:23;;;;;;;1.75;0.65;;;12.00;99.90;;;;;;5029941;28;20136;-60
2022/05/21 05:40:50;;;;;;;1.52;0.68;;;12.00;99.90;;;;;;5027945;28;20153;-59
2022/05/21 05:43:19;;;;;;;1.05;0.70;;;12.10;99.90;;;;;;5029013;28;20418;-59
2022/05/21 05:45:48;;;;;;;1.30;0.60;;;12.00;99.90;;;;;;5009343;28;20603;-59
2022/05/21 05:48:15;;;;;;;1.52;0.75;;;12.10;99.90;;;;;;5033788;28;20140;-59
2022/05/21 05:50:42;;;;;;;2.00;0.60;;;12.00;99.90;;;;;;5021212;28;20483;-59
2022/05/21 05:53:09;;;;;;;2.13;1.00;;;12.00;99.90;;;;;;5036159;28;20151;-58
2022/05/21 05:55:36;;;;;;;1.40;0.60;;;12.10;99.90;;;;;;5022234;28;20135;-60
2022/05/21 05:59:48;;;;;;;1.92;0.73;;;12.10;99.90;;;;;;5037929;28;20049;-60
2022/05/21 06:00:50;;;;;;;1.00;0.57;;;12.10;99.90;;;;;;5023442;28;20065;-60
2022/05/21 06:03:17;;;;;;;2.08;0.70;;;12.20;99.90;;;;;;5036478;28;20156;-59
2022/05/21 06:05:44;;;;;;;1.42;0.52;;;12.20;99.90;;;;;;5037630;28;20103;-60
2022/05/21 06:08:10;;;;;;;2.95;0.98;;;12.30;99.90;;;;;;5009818;28;20052;-59
2022/05/21 06:10:39;;;;;;;4.60;1.45;;;12.40;99.90;;;;;;5038574;28;20088;-59
2022/05/21 06:13:06;;;;;;;3.60;0.95;;;12.40;99.90;;;;;;5039986;28;20156;-60
2022/05/21 06:15:33;;;;;;;1.23;0.60;;;12.50;99.90;;;;;;5038157;28;20370;-60
2022/05/21 06:18:05;;;;;;;2.05;0.90;;;12.50;99.90;;;;;;5035922;28;20045;-60
2022/05/21 06:20:32;;;;;;;3.03;1.40;;;12.60;99.90;;;;;;5036489;28;20131;-59
2022/05/21 06:22:59;;;;;;;3.63;1.13;;;12.70;99.90;;;;;;5031631;28;20167;-59
2022/05/21 06:25:29;;;;;;;2.05;1.00;;;12.70;99.90;;;;;;5010817;28;20048;-59
2022/05/21 06:27:55;;;;;;;2.28;0.90;;;12.80;99.90;;;;;;5030250;28;20149;-60
2022/05/21 06:30:23;;;;;;;2.38;0.88;;;12.80;99.90;;;;;;5037050;28;20804;-60
2022/05/21 06:32:50;;;;;;;2.05;1.00;;;12.80;99.90;;;;;;5037943;28;20136;-59
2022/05/21 06:35:17;;;;;;;2.50;1.05;;;12.90;99.90;;;;;;5033115;28;20049;-59
2022/05/21 06:37:44;;;;;;;1.75;0.77;;;12.90;99.90;;;;;;5025260;28;20057;-59
2022/05/21 06:40:11;;;;;;;3.75;1.20;;;13.00;99.90;;;;;;5032432;28;20132;-59
2022/05/21 06:42:38;;;;;;;2.90;1.30;;;13.00;99.90;;;;;;5028025;28;20157;-60
2022/05/21 06:45:06;;;;;;;3.70;1.10;;;13.10;99.90;;;;;;5030143;28;20065;-59
2022/05/21 06:47:33;;;;;;;3.45;1.10;;;13.20;99.90;;;;;;5026928;28;20085;-60
2022/05/21 06:50:00;;;;;;;3.88;0.95;;;13.30;99.90;;;;;;5034005;28;20740;-60
2022/05/21 06:52:28;;;;;;;4.32;1.23;;;13.40;99.90;;;;;;5037741;28;20049;-60
2022/05/21 06:54:54;;;;;;;3.20;1.35;;;13.50;99.90;;;;;;5019189;28;20068;-60
2022/05/21 06:57:26;;;;;;;3.60;1.63;;;13.50;99.90;;;;;;5016549;28;20128;-60
2022/05/21 06:59:53;;;;;;;5.13;1.30;;;13.60;99.90;;;;;;5030081;28;20088;-60
2022/05/21 07:02:19;;;;;;;2.60;1.17;;;13.60;99.90;;;;;;5038814;28;20061;-60
2022/05/21 07:07:35;;;;;;;3.38;1.23;;;13.80;99.90;;;;;;5033183;28;20148;-60
2022/05/21 07:10:10;;;;;;;5.32;1.60;;;13.90;99.90;;;;;;5032465;28;20738;-60
2022/05/21 07:12:37;;;;;;;6.32;1.38;;;13.90;99.90;;;;;;4989338;28;20674;-60
2022/05/21 07:15:05;;;;;;;4.70;1.27;;;13.90;99.90;;;;;;5038250;28;20049;-59
2022/05/21 07:17:31;;;;;;;4.25;1.65;;;14.00;99.90;;;;;;5038689;28;20067;-60
2022/05/21 07:20:00;;;;;;;4.00;1.45;;;13.90;99.90;;;;;;5037330;28;20679;-59
2022/05/21 07:22:27;;;;;;;3.33;1.23;;;13.90;99.90;;;;;;5021569;28;20084;-59
2022/05/21 07:24:54;;;;;;;5.85;1.80;;;13.90;99.90;;;;;;5020559;28;20057;-60
2022/05/21 07:27:20;;;;;;;4.38;1.45;;;13.90;99.90;;;;;;5038935;28;20128;-59
2022/05/21 07:29:47;;;;;;;4.65;1.63;;;13.90;99.90;;;;;;5036696;28;20144;-60
2022/05/21 07:32:20;;;;;;;3.95;1.40;;;14.00;99.90;;;;;;5040491;28;20084;-60
2022/05/21 07:34:46;;;;;;;3.63;1.47;;;14.00;99.90;;;;;;5023210;28;20059;-59
2022/05/21 07:37:13;;;;;;;3.78;1.83;;;14.00;99.90;;;;;;5042338;28;20286;-60
2022/05/21 07:39:40;;;;;;;5.10;1.92;;;14.00;99.90;;;;;;5042207;28;20067;-60
2022/05/21 07:42:07;;;;;;;6.18;2.00;;;14.00;99.90;;;;;;5042424;28;20045;-60
2022/05/21 07:44:34;;;;;;;5.43;1.65;;;14.00;99.90;;;;;;5035203;28;20080;-59
2022/05/21 07:47:01;;;;;;;2.33;1.50;;;14.00;99.90;;;;;;5041838;28;20049;-60
2022/05/21 07:49:28;;;;;;;3.50;1.23;;;14.00;99.90;;;;;;5035310;28;20136;-59
2022/05/21 07:51:56;;;;;;;3.70;1.63;;;14.10;99.90;;;;;;5033203;28;20670;-60
2022/05/21 07:54:23;;;;;;;2.40;1.13;;;14.20;99.90;;;;;;5037176;28;20476;-59
2022/05/21 07:56:50;;;;;;;4.68;1.80;;;14.30;99.90;;;;;;5039222;28;20132;-60
2022/05/21 07:59:17;;;;;;;3.25;1.40;;;14.30;99.90;;;;;;5041378;28;20061;-59
2022/05/21 08:01:43;;;;;;;5.00;1.90;;;14.40;99.90;;;;;;5041368;28;20053;-60
2022/05/21 08:04:10;;;;;;;5.90;1.70;;;14.50;99.90;;;;;;5037404;28;20064;-60
2022/05/21 08:06:37;;;;;;;4.28;1.58;;;14.70;99.90;;;;;;5029234;28;20440;-60
2022/05/21 08:09:03;;;;;;;6.68;2.22;;;14.90;99.90;;;;;;5041168;28;20111;-59
2022/05/21 08:11:30;;;;;;;3.70;1.30;;;15.00;99.90;;;;;;5040727;28;20140;-60
2022/05/21 08:13:57;;;;;;;2.63;1.38;;;15.20;99.90;;;;;;5035454;28;20051;-61
2022/05/21 08:16:24;;;;;;;2.03;1.23;;;15.30;99.90;;;;;;5037875;28;20044;-61
2022/05/21 08:18:50;;;;;;;3.22;1.27;;;15.40;99.90;;;;;;5040108;28;20141;-61
2022/05/21 08:21:17;;;;;;;1.75;1.08;;;15.50;99.90;;;;;;5040462;28;20521;-60
2022/05/21 08:29:14;;;;;;;2.40;1.20;;;15.70;99.90;;;;;;5032949;28;22566;-60
2022/05/21 08:31:41;;;;;;;2.67;1.20;;;15.80;99.90;;;;;;5032259;28;20394;-60
2022/05/21 08:34:08;;;;;;;1.77;1.17;;;15.80;99.90;;;;;;5033780;28;20065;-61
2022/05/21 08:36:35;;;;;;;2.75;1.13;;;15.90;99.90;;;;;;5040799;28;20049;-60
2022/05/21 08:39:02;;;;;;;2.17;1.23;;;15.90;99.90;;;;;;5041229;28;20356;-61
2022/05/21 08:41:31;;;;;;;1.58;0.73;;;16.00;99.90;;;;;;5040445;28;20128;-61
2022/05/21 08:44:13;;;;;;;2.33;0.98;;;16.20;99.90;;;;;;5039985;28;20064;-61
2022/05/21 08:47:04;;;;;;;4.20;1.75;;;16.40;99.90;;;;;;5022546;28;20354;-61
2022/05/21 08:49:56;;;;;;;2.85;1.40;;;16.50;99.90;;;;;;5021293;28;20496;-60
2022/05/21 08:52:42;;;;;;;3.45;1.50;;;16.60;99.90;;;;;;5039712;28;20128;-59
2022/05/21 08:55:11;;;;;;;4.45;1.92;;;16.70;99.90;;;;;;5040204;28;20085;-61
2022/05/21 08:57:46;;;;;;;3.45;1.45;;;16.70;99.90;;;;;;5001006;28;20577;-61
2022/05/21 09:00:30;;;;;;;5.93;2.72;;;16.70;99.90;;;;;;5014638;28;20115;-61
2022/05/21 09:02:57;;;;;;;3.97;1.80;;;16.60;99.90;;;;;;5015305;28;20048;-61
2022/05/21 09:05:25;;;;;;;2.70;1.67;;;16.60;99.90;;;;;;5027189;28;20045;-60
2022/05/21 09:07:57;;;;;;;3.22;2.10;;;16.60;99.90;;;;;;5041135;28;20103;-60
2022/05/21 09:10:47;;;;;;;3.60;1.88;;;16.70;99.90;;;;;;5020238;28;20171;-61
2022/05/21 09:13:30;;;;;;;4.05;1.40;;;17.00;99.90;;;;;;5039821;28;20748;-60
2022/05/21 09:18:42;;;;;;;2.65;1.40;;;17.00;99.90;;;;;;5038990;28;20148;-61
2022/05/21 09:21:10;;;;;;;2.88;1.77;;;17.10;99.90;;;;;;5039454;28;20148;-61
2022/05/21 09:23:51;;;;;;;4.18;1.77;;;17.10;99.90;;;;;;5003862;28;20080;-61
2022/05/21 09:26:23;;;;;;;3.65;1.70;;;17.10;99.90;;;;;;5041222;28;20124;-61
2022/05/21 09:28:50;;;;;;;5.57;2.28;;;17.00;99.90;;;;;;5033008;28;20053;-61
2022/05/21 09:31:37;;;;;;;3.08;1.55;;;17.00;99.90;;;;;;5021658;28;20802;-61
2022/05/21 09:34:26;;;;;;;2.72;1.48;;;17.00;99.90;;;;;;5041463;28;20408;-60
2022/05/21 09:36:53;;;;;;;3.60;1.60;;;16.90;99.90;;;;;;5042415;28;20056;-61
2022/05/21 09:39:34;;;;;;;3.63;1.73;;;17.00;99.90;;;;;;5025209;28;20160;-61
2022/05/21 09:45:22;;;;;;;2.55;1.25;;;17.20;99.90;;;;;;5042682;28;20076;-62
2022/05/21 09:45:23;;;;;;;2.25;0.90;;;17.40;99.90;;;;;;5040514;28;20065;-61
2022/05/21 09:47:59;;;;;;;3.60;1.20;;;17.50;99.90;;;;;;5025932;28;20319;-61
2022/05/21 09:50:26;;;;;;;2.78;1.30;;;17.60;99.90;;;;;;5041011;28;20052;-61
2022/05/21 09:52:53;;;;;;;2.88;1.20;;;17.80;99.90;;;;;;5042704;28;20675;-62
2022/05/21 09:55:19;;;;;;;2.05;1.05;;;18.00;99.90;;;;;;5041445;28;20368;-62
2022/05/21 09:57:46;;;;;;;2.55;1.00;;;18.20;99.90;;;;;;5044096;28;20120;-61
2022/05/21 10:00:21;;;;;;;1.67;0.70;;;18.40;99.90;;;;;;5044987;28;20148;-61
2022/05/21 10:02:59;;;;;;;2.13;0.90;;;18.60;99.90;;;;;;5011925;28;20057;-61
2022/05/21 10:05:38;;;;;;;2.45;1.02;;;18.60;99.90;;;;;;5044019;28;20061;-61
2022/05/21 10:11:28;;;;;;;1.35;0.75;;;18.80;99.90;;;;;;5045272;28;20084;-61
2022/05/21 10:14:15;;;;;;;3.08;1.00;;;19.10;99.90;;;;;;5026955;28;20161;-61
2022/05/21 10:16:46;;;;;;;1.80;0.80;;;19.10;99.20;;;;;;5030171;28;20041;-61
2022/05/21 10:19:26;;;;;;;1.13;0.60;;;19.10;98.90;;;;;;5027158;28;20049;-61
2022/05/21 10:22:16;;;;;;;1.85;0.73;;;19.00;99.90;;;;;;5045710;28;20143;-61
2022/05/21 10:25:04;;;;;;;3.22;1.20;;;18.80;98.80;;;;;;5045455;28;20100;-62
2022/05/21 10:27:30;;;;;;;1.83;0.85;;;18.60;99.20;;;;;;5046013;28;20072;-61
2022/05/21 10:30:20;;;;;;;2.15;0.90;;;18.50;98.90;;;;;;5044358;28;20049;-61
2022/05/21 10:32:52;;;;;;;2.80;1.30;;;18.50;99.60;;;;;;5045298;28;20061;-62
2022/05/21 10:35:57;;;;;;;1.63;0.73;;;18.30;99.90;;;;;;5043818;28;20059;-61
2022/05/21 10:38:32;;;;;;;2.63;0.98;;;18.20;99.30;;;;;;5044912;28;20080;-61
2022/05/21 10:41:04;;;;;;;4.20;1.48;;;18.10;99.70;;;;;;5044904;28;20133;-61
2022/05/21 10:44:25;;;;;;;3.00;1.05;;;18.00;99.70;;;;;;5026751;28;20635;-61
2022/05/21 10:47:09;;;;;;;2.80;1.15;;;17.90;99.40;;;;;;5002385;28;20081;-61
2022/05/21 10:49:39;;;;;;;;;;;17.90;99.90;;;;;;5022764;28;20456;-61
2022/05/21 10:52:24;;;;;;;2.85;1.08;;;18.00;99.30;;;;;;5026682;28;19963;-62
2022/05/21 10:55:16;;;;;;;2.00;0.73;;;18.10;98.30;;;;;;5044988;28;20045;-61
2022/05/21 10:58:01;;;;;;;1.80;0.70;;;18.20;99.70;;;;;;5027620;28;20049;-62
2022/05/21 11:00:33;;;;;;;2.30;0.80;;;18.30;98.60;;;;;;5043812;28;20461;-61
2022/05/21 11:03:25;;;;;;;1.50;0.70;;;18.30;97.40;;;;;;5027640;28;20139;-61
2022/05/21 11:06:12;;;;;;;2.20;0.90;;;18.30;97.60;;;;;;5026919;28;20060;-61
2022/05/21 11:09:02;;;;;;;2.00;0.85;;;18.40;97.80;;;;;;5032299;28;20095;-61
2022/05/21 11:11:31;;;;;;;2.67;0.77;;;18.50;97.40;;;;;;5031287;28;20202;-61
2022/05/21 11:14:07;;;;;;;2.47;1.20;;;18.70;97.50;;;;;;5048343;28;20136;-61
2022/05/21 11:16:52;;;;;;;1.80;0.70;;;18.80;97.50;;;;;;5023410;28;20577;-60
2022/05/21 11:19:41;;;;;;;1.13;0.65;;;19.00;97.20;;;;;;5022058;28;20520;-61
2022/05/21 11:22:09;;;;;;;1.65;0.60;;;19.20;95.20;;;;;;5025787;28;20045;-60
2022/05/21 11:24:45;;;;;;;2.15;0.90;;;19.30;95.90;;;;;;5025521;28;20059;-62
2022/05/21 11:27:36;;;;;;;2.72;0.93;;;19.40;95.60;;;;;;5005242;28;20072;-62
2022/05/21 11:30:09;;;;;;;1.70;0.70;;;19.70;96.00;;;;;;5019111;28;20436;-61
2022/05/21 11:38:36;;;;;;;2.33;0.90;;;20.20;94.70;;;;;;5030150;28;20132;-62
2022/05/21 11:41:25;;;;;;;1.48;0.75;;;20.50;95.20;;;;;;5020814;28;20085;-61
2022/05/21 11:47:13;;;;;;;2.28;0.80;;;21.00;92.20;;;;;;5014171;28;20084;-61
2022/05/21 11:49:58;;;;;;;0.80;0.50;;;21.40;91.50;;;;;;5047490;28;20136;-61
2022/05/21 11:52:27;;;;;;;1.38;0.57;;;21.50;91.80;;;;;;5028717;28;20140;-61
2022/05/21 11:54:54;;;;;;;1.13;0.75;;;21.60;92.30;;;;;;5040223;28;20045;-62
2022/05/21 11:57:41;;;;;;;1.52;0.65;;;21.50;90.20;;;;;;5038141;28;20140;-61
2022/05/21 12:00:14;;;;;;;2.25;0.90;;;21.20;90.60;;;;;;5044672;28;20158;-61
2022/05/21 12:02:53;;;;;;;1.35;0.60;;;20.90;90.80;;;;;;5044959;28;20080;-61
2022/05/21 12:05:40;;;;;;;1.25;0.60;;;20.90;91.10;;;;;;5039077;28;20111;-62
2022/05/21 12:08:12;;;;;;;2.33;0.90;;;21.00;91.20;;;;;;5044718;28;20051;-62
2022/05/21 12:11:06;;;;;;;2.53;0.90;;;21.00;91.20;;;;;;5044300;28;20071;-60
2022/05/21 12:13:33;;;;;;;2.05;0.75;;;21.00;90.30;;;;;;5036746;28;20140;-62
2022/05/21 12:16:20;;;;;;;1.52;0.90;;;21.10;90.00;;;;;;5043025;28;20148;-61
2022/05/21 12:18:51;;;;;;;1.83;0.93;;;21.20;90.00;;;;;;5037620;28;20417;-61
2022/05/21 12:21:57;;;;;;;1.52;0.68;;;21.30;90.10;;;;;;5004214;28;20070;-61
2022/05/21 12:24:40;;;;;;;2.17;0.90;;;21.80;89.50;;;;;;5038748;28;20142;-62
2022/05/21 12:27:24;;;;;;;2.17;0.70;;;22.00;86.50;;;;;;5006883;28;20070;-62
2022/05/21 12:30:00;;;;;;;2.35;0.82;;;21.80;87.20;;;;;;5041580;28;20059;-61
2022/05/21 12:32:27;;;;;;;1.40;0.60;;;21.80;87.00;;;;;;5027365;28;20052;-62
2022/05/21 12:35:18;;;;;;;1.70;0.85;;;21.70;86.60;;;;;;5025203;28;20057;-62
2022/05/21 12:37:51;;;;;;;2.50;0.95;;;21.80;86.00;;;;;;5023834;28;20052;-62
2022/05/21 12:40:39;;;;;;;3.03;1.00;;;21.80;87.10;;;;;;5009521;28;20139;-62
2022/05/21 12:43:08;;;;;;;2.70;1.00;;;22.10;87.20;;;;;;5044872;28;20448;-62
2022/05/21 12:45:44;;;;;;;3.35;1.08;;;22.20;84.80;;;;;;5045354;28;20072;-61
2022/05/21 12:48:11;;;;;;;2.20;0.80;;;21.90;85.60;;;;;;5045361;28;20148;-62
2022/05/21 12:50:55;;;;;;;2.13;0.70;;;22.40;82.90;;;;;;5042986;28;20057;-62
2022/05/21 12:53:39;;;;;;;0.73;0.50;;;22.30;82.90;;;;;;5026371;28;20083;-62
2022/05/21 12:56:27;;;;;;;2.05;1.00;;;22.40;83.60;;;;;;5028276;28;20131;-62
2022/05/21 12:59:04;;;;;;;2.55;0.73;;;22.10;81.90;;;;;;5046439;28;20132;-60
2022/05/21 13:01:31;;;;;;;3.05;1.00;;;21.90;83.60;;;;;;5043152;28;20132;-60
2022/05/21 13:04:01;;;;;;;2.20;1.02;;;21.80;82.90;;;;;;5045619;28;20818;-61
2022/05/21 13:06:31;;;;;;;2.40;0.98;;;21.60;82.40;;;;;;5043905;28;20487;-60
2022/05/21 13:09:01;;;;;;;1.95;0.82;;;22.20;82.90;;;;;;5027977;28;20136;-61
2022/05/21 13:11:41;;;;;;;2.92;0.98;;;22.90;80.60;;;;;;5008409;28;20120;-62
2022/05/21 13:14:10;;;;;;;1.38;0.77;;;23.00;81.00;;;;;;5010305;28;20129;-61
2022/05/21 13:16:51;;;;;;;1.27;0.70;;;23.70;83.20;;;;;;5022704;28;20040;-61
2022/05/21 13:19:44;;;;;;;0.85;0.68;;;24.70;81.00;;;;;;5033367;28;20084;-62
2022/05/21 13:22:50;;;;;;;2.10;1.00;;;25.30;77.90;;;;;;5027743;28;20053;-61
2022/05/21 13:25:22;;;;;;;2.08;0.80;;;25.60;74.50;;;;;;5025071;28;20080;-61
2022/05/21 13:27:52;;;;;;;2.63;1.13;;;25.00;74.20;;;;;;5025033;28;20041;-61
2022/05/21 13:30:21;;;;;;;1.90;0.85;;;24.30;73.00;;;;;;5045392;28;20084;-62
2022/05/21 13:32:56;;;;;;;1.30;0.43;;;24.50;74.90;;;;;;5042034;28;20522;-61
2022/05/21 13:35:28;;;;;;;1.08;0.40;;;25.00;75.70;;;;;;5031664;28;20060;-61
2022/05/21 13:37:55;;;;;;;1.05;0.50;;;24.80;76.40;;;;;;5025328;28;20057;-61
2022/05/21 13:40:30;;;;;;;0.40;0.40;;;24.20;72.90;;;;;;5027401;28;20469;-61
2022/05/21 13:43:10;;;;;;;0.82;0.40;;;24.20;73.80;;;;;;5023644;28;20045;-61